^^
Station Historical Data
Daily Summary for November 11, 2017 Units:  Both    English   Metric
« Previous Day
Next Day »
Daily Weekly Monthly Yearly Custom
  High: Low: Average:
Temperature: 35.7 °F /  2.1 °C 22.0 °F /  -5.6 °C 27.3 °F /  -2.6 °C
Dew Point: 15.4 °F /  -9.2 °C 8.3 °F /  -13.2 °C 12.3 °F /  -10.9 °C
Humidity: 71% 32% 54%
Wind Speed: 5.0mph /  8km/h - 0.7mph /  1.1km/h
Wind Gust: 13.0mph /  20.9km/h - -
Wind- - SW
Pressure: 30.60 in /  1036.1 hPa 30.49 in /  1032.4 hPa -
Precipitation: 0.00 in /  0 mm    
Historical Graphs
 
 
Tabular Data for November 11, 2017
Time Temperature Dew Point Pressure Wind Wind Speed Wind Gust Humidity Rainfall Rate (Hourly) Conditions
00:00 23.0 °F /  -5 °C 11.6 °F /  -11.3 °C 30.51in /  1033.1hPa SSW 1.0mph /  1.6km/h 6.0mph /  9.7km/h 61% 0.00in /  0mm CLR
00:10 22.8 °F /  -5.1 °C 11.7 °F /  -11.3 °C 30.51in /  1033.1hPa SSE 1.0mph /  1.6km/h 5.0mph /  8km/h 62% 0.00in /  0mm CLR
00:20 22.6 °F /  -5.2 °C 11.5 °F /  -11.4 °C 30.51in /  1033.1hPa SW 2.0mph /  3.2km/h 8.0mph /  12.9km/h 62% 0.00in /  0mm CLR
00:30 22.6 °F /  -5.2 °C 11.9 °F /  -11.2 °C 30.51in /  1033.1hPa Calm   5.0mph /  8km/h 63% 0.00in /  0mm CLR
00:40 22.4 °F /  -5.3 °C 12.1 °F /  -11.1 °C 30.50in /  1032.7hPa Calm   3.0mph /  4.8km/h 64% 0.00in /  0mm CLR
00:50 22.4 °F /  -5.3 °C 12.4 °F /  -10.9 °C 30.50in /  1032.7hPa Calm   4.0mph /  6.4km/h 65% 0.00in /  0mm CLR
01:00 22.3 °F /  -5.4 °C 12.7 °F /  -10.7 °C 30.51in /  1033.1hPa NW 1.0mph /  1.6km/h 7.0mph /  11.3km/h 66% 0.00in /  0mm CLR
01:09 22.4 °F /  -5.3 °C 12.8 °F /  -10.7 °C 30.50in /  1032.7hPa Calm   6.0mph /  9.7km/h 66% 0.00in /  0mm CLR
01:19 22.4 °F /  -5.3 °C 13.1 °F /  -10.5 °C 30.50in /  1032.7hPa Calm   3.0mph /  4.8km/h 67% 0.00in /  0mm CLR
01:30 22.5 °F /  -5.3 °C 13.5 °F /  -10.3 °C 30.50in /  1032.7hPa ENE 1.0mph /  1.6km/h 7.0mph /  11.3km/h 68% 0.00in /  0mm CLR
01:39 22.5 °F /  -5.3 °C 13.5 °F /  -10.3 °C 30.50in /  1032.7hPa Calm   7.0mph /  11.3km/h 68% 0.00in /  0mm CLR
01:49 22.5 °F /  -5.3 °C 13.5 °F /  -10.3 °C 30.51in /  1033.1hPa East 1.0mph /  1.6km/h 6.0mph /  9.7km/h 68% 0.00in /  0mm CLR
02:00 22.5 °F /  -5.3 °C 14.2 °F /  -9.9 °C 30.50in /  1032.7hPa WSW 1.0mph /  1.6km/h 5.0mph /  8km/h 70% 0.00in /  0mm CLR
02:10 22.5 °F /  -5.3 °C 13.9 °F /  -10.1 °C 30.50in /  1032.7hPa NW 2.0mph /  3.2km/h 8.0mph /  12.9km/h 69% 0.00in /  0mm CLR
02:20 22.6 °F /  -5.2 °C 14.3 °F /  -9.8 °C 30.49in /  1032.4hPa Calm   10.0mph /  16.1km/h 70% 0.00in /  0mm CLR
02:29 22.7 °F /  -5.2 °C 14.7 °F /  -9.6 °C 30.50in /  1032.7hPa East 1.0mph /  1.6km/h 7.0mph /  11.3km/h 71% 0.00in /  0mm CLR
02:40 22.7 °F /  -5.2 °C 14.4 °F /  -9.8 °C 30.51in /  1033.1hPa NE 2.0mph /  3.2km/h 7.0mph /  11.3km/h 70% 0.00in /  0mm CLR
02:49 22.6 °F /  -5.2 °C 14.3 °F /  -9.8 °C 30.50in /  1032.7hPa Calm   10.0mph /  16.1km/h 70% 0.00in /  0mm CLR
02:59 22.5 °F /  -5.3 °C 14.2 °F /  -9.9 °C 30.50in /  1032.7hPa Calm   9.0mph /  14.5km/h 70% 0.00in /  0mm CLR
03:10 22.4 °F /  -5.3 °C 14.1 °F /  -9.9 °C 30.51in /  1033.1hPa North 2.0mph /  3.2km/h 9.0mph /  14.5km/h 70% 0.00in /  0mm CLR
03:19 22.3 °F /  -5.4 °C 13.7 °F /  -10.2 °C 30.51in /  1033.1hPa Calm   3.0mph /  4.8km/h 69% 0.00in /  0mm CLR
03:29 22.3 °F /  -5.4 °C 14.0 °F /  -10 °C 30.51in /  1033.1hPa SW 1.0mph /  1.6km/h 4.0mph /  6.4km/h 70% 0.00in /  0mm CLR
03:40 22.3 °F /  -5.4 °C 14.0 °F /  -10 °C 30.52in /  1033.4hPa NW 1.0mph /  1.6km/h 5.0mph /  8km/h 70% 0.00in /  0mm CLR
03:50 22.4 °F /  -5.3 °C 14.1 °F /  -9.9 °C 30.53in /  1033.7hPa NNE 2.0mph /  3.2km/h 9.0mph /  14.5km/h 70% 0.00in /  0mm CLR
04:00 22.5 °F /  -5.3 °C 14.2 °F /  -9.9 °C 30.53in /  1033.7hPa NNW 3.0mph /  4.8km/h 8.0mph /  12.9km/h 70% 0.00in /  0mm CLR
04:10 22.5 °F /  -5.3 °C 14.2 °F /  -9.9 °C 30.53in /  1033.7hPa Calm   5.0mph /  8km/h 70% 0.00in /  0mm CLR
04:20 22.2 °F /  -5.4 °C 14.2 °F /  -9.9 °C 30.54in /  1034.1hPa Calm   6.0mph /  9.7km/h 71% 0.00in /  0mm CLR
04:30 22.2 °F /  -5.4 °C 14.2 °F /  -9.9 °C 30.54in /  1034.1hPa Calm   8.0mph /  12.9km/h 71% 0.00in /  0mm CLR
04:39 22.0 °F /  -5.6 °C 14.0 °F /  -10 °C 30.54in /  1034.1hPa Calm   3.0mph /  4.8km/h 71% 0.00in /  0mm CLR
04:50 22.0 °F /  -5.6 °C 14.0 °F /  -10 °C 30.54in /  1034.1hPa Calm   5.0mph /  8km/h 71% 0.00in /  0mm CLR
04:59 22.1 °F /  -5.5 °C 14.1 °F /  -9.9 °C 30.54in /  1034.1hPa Calm   6.0mph /  9.7km/h 71% 0.00in /  0mm CLR
05:10 22.4 °F /  -5.3 °C 14.4 °F /  -9.8 °C 30.54in /  1034.1hPa North 2.0mph /  3.2km/h 6.0mph /  9.7km/h 71% 0.00in /  0mm CLR
05:20 22.5 °F /  -5.3 °C 14.5 °F /  -9.7 °C 30.54in /  1034.1hPa Calm   8.0mph /  12.9km/h 71% 0.00in /  0mm CLR
05:29 22.7 °F /  -5.2 °C 14.4 °F /  -9.8 °C 30.53in /  1033.7hPa Calm   9.0mph /  14.5km/h 70% 0.00in /  0mm CLR
05:40 22.8 °F /  -5.1 °C 14.8 °F /  -9.6 °C 30.53in /  1033.7hPa ENE 1.0mph /  1.6km/h 8.0mph /  12.9km/h 71% 0.00in /  0mm CLR
05:49 22.7 °F /  -5.2 °C 14.4 °F /  -9.8 °C 30.52in /  1033.4hPa North 1.0mph /  1.6km/h 8.0mph /  12.9km/h 70% 0.00in /  0mm CLR
05:59 22.5 °F /  -5.3 °C 14.5 °F /  -9.7 °C 30.53in /  1033.7hPa Calm   7.0mph /  11.3km/h 71% 0.00in /  0mm CLR
06:09 22.4 °F /  -5.3 °C 14.4 °F /  -9.8 °C 30.54in /  1034.1hPa SSE 2.0mph /  3.2km/h 7.0mph /  11.3km/h 71% 0.00in /  0mm CLR
06:20 22.3 °F /  -5.4 °C 14.3 °F /  -9.8 °C 30.54in /  1034.1hPa Calm   3.0mph /  4.8km/h 71% 0.00in /  0mm CLR
06:29 22.3 °F /  -5.4 °C 14.0 °F /  -10 °C 30.55in /  1034.4hPa NE 1.0mph /  1.6km/h 3.0mph /  4.8km/h 70% 0.00in /  0mm CLR
06:40 22.4 °F /  -5.3 °C 14.1 °F /  -9.9 °C 30.55in /  1034.4hPa Calm   4.0mph /  6.4km/h 70% 0.00in /  0mm CLR
06:49 22.6 °F /  -5.2 °C 14.0 °F /  -10 °C 30.55in /  1034.4hPa Calm   3.0mph /  4.8km/h 69% 0.00in /  0mm CLR
06:59 22.7 °F /  -5.2 °C 14.1 °F /  -9.9 °C 30.56in /  1034.8hPa Calm   3.0mph /  4.8km/h 69% 0.00in /  0mm CLR
07:09 22.8 °F /  -5.1 °C 13.8 °F /  -10.1 °C 30.55in /  1034.4hPa SSE 1.0mph /  1.6km/h 5.0mph /  8km/h 68% 0.00in /  0mm CLR
07:20 22.9 °F /  -5.1 °C 13.9 °F /  -10.1 °C 30.56in /  1034.8hPa NNW 2.0mph /  3.2km/h 4.0mph /  6.4km/h 68% 0.00in /  0mm CLR
07:30 23.2 °F /  -4.9 °C 14.5 °F /  -9.7 °C 30.57in /  1035.1hPa Calm   2.0mph /  3.2km/h 69% 0.00in /  0mm CLR
07:40 23.5 °F /  -4.7 °C 14.8 °F /  -9.6 °C 30.57in /  1035.1hPa Calm   6.0mph /  9.7km/h 69% 0.00in /  0mm CLR
07:49 23.8 °F /  -4.6 °C 14.8 °F /  -9.6 °C 30.57in /  1035.1hPa Calm   4.0mph /  6.4km/h 68% 0.00in /  0mm CLR
07:59 24.1 °F /  -4.4 °C 14.4 °F /  -9.8 °C 30.58in /  1035.4hPa Calm   5.0mph /  8km/h 66% 0.00in /  0mm CLR
08:10 24.3 °F /  -4.3 °C 13.1 °F /  -10.5 °C 30.58in /  1035.4hPa NNW 1.0mph /  1.6km/h 7.0mph /  11.3km/h 62% 0.00in /  0mm CLR
08:20 24.2 °F /  -4.3 °C 11.5 °F /  -11.4 °C 30.58in /  1035.4hPa North 2.0mph /  3.2km/h 10.0mph /  16.1km/h 58% 0.00in /  0mm CLR
08:29 24.3 °F /  -4.3 °C 11.3 °F /  -11.5 °C 30.59in /  1035.8hPa North 1.0mph /  1.6km/h 8.0mph /  12.9km/h 57% 0.00in /  0mm CLR
08:39 24.4 °F /  -4.2 °C 12.1 °F /  -11.1 °C 30.59in /  1035.8hPa North 1.0mph /  1.6km/h 7.0mph /  11.3km/h 59% 0.00in /  0mm CLR
08:50 24.7 °F /  -4.1 °C 12.0 °F /  -11.1 °C 30.59in /  1035.8hPa North 2.0mph /  3.2km/h 5.0mph /  8km/h 58% 0.00in /  0mm CLR
08:59 24.9 °F /  -3.9 °C 11.8 °F /  -11.2 °C 30.59in /  1035.8hPa NNE 1.0mph /  1.6km/h 8.0mph /  12.9km/h 57% 0.00in /  0mm CLR
09:09 25.6 °F /  -3.6 °C 11.6 °F /  -11.3 °C 30.59in /  1035.8hPa Calm   8.0mph /  12.9km/h 55% 0.00in /  0mm CLR
09:20 26.1 °F /  -3.3 °C 10.4 °F /  -12 °C 30.59in /  1035.8hPa NNW 2.0mph /  3.2km/h 9.0mph /  14.5km/h 51% 0.00in /  0mm CLR
09:30 26.3 °F /  -3.2 °C 9.2 °F /  -12.7 °C 30.59in /  1035.8hPa NW 1.0mph /  1.6km/h 10.0mph /  16.1km/h 48% 0.00in /  0mm CLR
09:50 27.3 °F /  -2.6 °C 10.2 °F /  -12.1 °C 30.59in /  1035.8hPa NW 2.0mph /  3.2km/h 9.0mph /  14.5km/h 48% 0.00in /  0mm CLR
09:59 27.6 °F /  -2.4 °C 10.0 °F /  -12.2 °C 30.59in /  1035.8hPa NNW 5.0mph /  8km/h 9.0mph /  14.5km/h 47% 0.00in /  0mm CLR
10:09 27.5 °F /  -2.5 °C 9.9 °F /  -12.3 °C 30.60in /  1036.1hPa NNE 2.0mph /  3.2km/h 10.0mph /  16.1km/h 47% 0.00in /  0mm CLR
10:20 28.3 °F /  -2.1 °C 11.1 °F /  -11.6 °C 30.60in /  1036.1hPa NNW 2.0mph /  3.2km/h 6.0mph /  9.7km/h 48% 0.00in /  0mm CLR
10:30 28.9 °F /  -1.7 °C 11.2 °F /  -11.6 °C 30.60in /  1036.1hPa NNW 2.0mph /  3.2km/h 12.0mph /  19.3km/h 47% 0.00in /  0mm CLR
10:40 29.2 °F /  -1.6 °C 11.9 °F /  -11.2 °C 30.60in /  1036.1hPa North 2.0mph /  3.2km/h 7.0mph /  11.3km/h 48% 0.00in /  0mm CLR
10:49 29.7 °F /  -1.3 °C 11.9 °F /  -11.2 °C 30.59in /  1035.8hPa NNE 1.0mph /  1.6km/h 7.0mph /  11.3km/h 47% 0.00in /  0mm CLR
10:59 29.8 °F /  -1.2 °C 12.0 °F /  -11.1 °C 30.60in /  1036.1hPa North 1.0mph /  1.6km/h 9.0mph /  14.5km/h 47% 0.00in /  0mm CLR
11:10 29.6 °F /  -1.3 °C 11.8 °F /  -11.2 °C 30.59in /  1035.8hPa WNW 2.0mph /  3.2km/h 12.0mph /  19.3km/h 47% 0.00in /  0mm CLR
11:20 29.8 °F /  -1.2 °C 11.5 °F /  -11.4 °C 30.59in /  1035.8hPa NW 1.0mph /  1.6km/h 13.0mph /  20.9km/h 46% 0.00in /  0mm CLR
11:30 30.2 °F /  -1 °C 11.9 °F /  -11.2 °C 30.59in /  1035.8hPa Calm   8.0mph /  12.9km/h 46% 0.00in /  0mm CLR
11:39 30.9 °F /  -0.6 °C 12.0 °F /  -11.1 °C 30.58in /  1035.4hPa West 2.0mph /  3.2km/h 9.0mph /  14.5km/h 45% 0.00in /  0mm CLR
11:49 30.9 °F /  -0.6 °C 12.5 °F /  -10.8 °C 30.58in /  1035.4hPa WNW 2.0mph /  3.2km/h 10.0mph /  16.1km/h 46% 0.00in /  0mm CLR
11:59 31.0 °F /  -0.6 °C 12.2 °F /  -11 °C 30.57in /  1035.1hPa WNW 2.0mph /  3.2km/h 8.0mph /  12.9km/h 45% 0.00in /  0mm CLR
12:10 31.1 °F /  -0.5 °C 13.2 °F /  -10.4 °C 30.57in /  1035.1hPa North 3.0mph /  4.8km/h 9.0mph /  14.5km/h 47% 0.00in /  0mm CLR
12:19 32.0 °F /  0 °C 14.0 °F /  -10 °C 30.57in /  1035.1hPa ESE 1.0mph /  1.6km/h 5.0mph /  8km/h 47% 0.00in /  0mm CLR
12:30 31.9 °F /  -0.1 °C 14.4 °F /  -9.8 °C 30.57in /  1035.1hPa NW 3.0mph /  4.8km/h 12.0mph /  19.3km/h 48% 0.00in /  0mm CLR
12:39 31.9 °F /  -0.1 °C 13.9 °F /  -10.1 °C 30.56in /  1034.8hPa Calm   12.0mph /  19.3km/h 47% 0.00in /  0mm CLR
12:49 32.7 °F /  0.4 °C 13.7 °F /  -10.2 °C 30.56in /  1034.8hPa NW 2.0mph /  3.2km/h 12.0mph /  19.3km/h 45% 0.00in /  0mm CLR
12:59 32.8 °F /  0.4 °C 14.3 °F /  -9.8 °C 30.55in /  1034.4hPa NNE 2.0mph /  3.2km/h 7.0mph /  11.3km/h 46% 0.00in /  0mm CLR
13:10 33.3 °F /  0.7 °C 14.7 °F /  -9.6 °C 30.55in /  1034.4hPa North 2.0mph /  3.2km/h 8.0mph /  12.9km/h 46% 0.00in /  0mm CLR
13:20 33.1 °F /  0.6 °C 14.0 °F /  -10 °C 30.54in /  1034.1hPa NNW 2.0mph /  3.2km/h 9.0mph /  14.5km/h 45% 0.00in /  0mm CLR
13:30 33.5 °F /  0.8 °C 13.9 °F /  -10.1 °C 30.53in /  1033.7hPa NW 3.0mph /  4.8km/h 9.0mph /  14.5km/h 44% 0.00in /  0mm CLR
13:39 33.8 °F /  1 °C 14.2 °F /  -9.9 °C 30.53in /  1033.7hPa Calm   8.0mph /  12.9km/h 44% 0.00in /  0mm CLR
13:50 34.4 °F /  1.3 °C 14.2 °F /  -9.9 °C 30.52in /  1033.4hPa NW 3.0mph /  4.8km/h 6.0mph /  9.7km/h 43% 0.00in /  0mm CLR
13:59 34.5 °F /  1.4 °C 12.1 °F /  -11.1 °C 30.52in /  1033.4hPa NNW 2.0mph /  3.2km/h 8.0mph /  12.9km/h 39% 0.00in /  0mm CLR
14:10 34.3 °F /  1.3 °C 10.7 °F /  -11.8 °C 30.52in /  1033.4hPa NNW 1.0mph /  1.6km/h 9.0mph /  14.5km/h 37% 0.00in /  0mm CLR
14:20 34.8 °F /  1.6 °C 11.2 °F /  -11.6 °C 30.52in /  1033.4hPa NNW 1.0mph /  1.6km/h 4.0mph /  6.4km/h 37% 0.00in /  0mm CLR
14:29 35.2 °F /  1.8 °C 10.2 °F /  -12.1 °C 30.53in /  1033.7hPa NNE 1.0mph /  1.6km/h 6.0mph /  9.7km/h 35% 0.00in /  0mm CLR
14:40 35.6 °F /  2 °C 9.9 °F /  -12.3 °C 30.53in /  1033.7hPa Calm   5.0mph /  8km/h 34% 0.00in /  0mm CLR
14:49 35.7 °F /  2.1 °C 9.3 °F /  -12.6 °C 30.52in /  1033.4hPa NW 1.0mph /  1.6km/h 4.0mph /  6.4km/h 33% 0.00in /  0mm CLR
14:59 35.4 °F /  1.9 °C 11.1 °F /  -11.6 °C 30.53in /  1033.7hPa NW 1.0mph /  1.6km/h 6.0mph /  9.7km/h 36% 0.00in /  0mm CLR
15:09 35.7 °F /  2.1 °C 10.0 °F /  -12.2 °C 30.53in /  1033.7hPa NNW 1.0mph /  1.6km/h 5.0mph /  8km/h 34% 0.00in /  0mm CLR
15:20 35.3 °F /  1.8 °C 8.3 °F /  -13.2 °C 30.53in /  1033.7hPa Calm   5.0mph /  8km/h 32% 0.00in /  0mm CLR
15:29 35.1 °F /  1.7 °C 8.9 °F /  -12.8 °C 30.53in /  1033.7hPa NW 1.0mph /  1.6km/h 2.0mph /  3.2km/h 33% 0.00in /  0mm CLR
15:39 34.7 °F /  1.5 °C 9.1 °F /  -12.7 °C 30.53in /  1033.7hPa Calm   3.0mph /  4.8km/h 34% 0.00in /  0mm CLR
15:49 34.2 °F /  1.2 °C 9.4 °F /  -12.6 °C 30.53in /  1033.7hPa Calm   2.0mph /  3.2km/h 35% 0.00in /  0mm CLR
15:59 33.9 °F /  1.1 °C 9.1 °F /  -12.7 °C 30.53in /  1033.7hPa Calm   1.0mph /  1.6km/h 35% 0.00in /  0mm CLR
16:09 33.4 °F /  0.8 °C 8.7 °F /  -12.9 °C 30.53in /  1033.7hPa Calm   2.0mph /  3.2km/h 35% 0.00in /  0mm CLR
16:19 33.0 °F /  0.6 °C 9.5 °F /  -12.5 °C 30.54in /  1034.1hPa Calm   3.0mph /  4.8km/h 37% 0.00in /  0mm CLR
16:30 32.6 °F /  0.3 °C 9.8 °F /  -12.3 °C 30.54in /  1034.1hPa Calm   1.0mph /  1.6km/h 38% 0.00in /  0mm CLR
16:39 31.8 °F /  -0.1 °C 11.3 °F /  -11.5 °C 30.54in /  1034.1hPa Calm     42% 0.00in /  0mm CLR
16:49 31.3 °F /  -0.4 °C 9.7 °F /  -12.4 °C 30.54in /  1034.1hPa Calm     40% 0.00in /  0mm CLR
16:59 30.8 °F /  -0.7 °C 10.4 °F /  -12 °C 30.55in /  1034.4hPa Calm     42% 0.00in /  0mm CLR
17:09 30.6 °F /  -0.8 °C 9.7 °F /  -12.4 °C 30.55in /  1034.4hPa Calm     41% 0.00in /  0mm CLR
17:20 30.2 °F /  -1 °C 9.8 °F /  -12.3 °C 30.55in /  1034.4hPa Calm     42% 0.00in /  0mm CLR
17:29 29.9 °F /  -1.2 °C 11.1 °F /  -11.6 °C 30.55in /  1034.4hPa Calm     45% 0.00in /  0mm CLR
17:40 29.8 °F /  -1.2 °C 10.5 °F /  -11.9 °C 30.55in /  1034.4hPa Calm     44% 0.00in /  0mm CLR
17:49 29.7 °F /  -1.3 °C 9.9 °F /  -12.3 °C 30.55in /  1034.4hPa Calm   1.0mph /  1.6km/h 43% 0.00in /  0mm CLR
17:59 29.6 °F /  -1.3 °C 10.3 °F /  -12.1 °C 30.56in /  1034.8hPa Calm     44% 0.00in /  0mm CLR
18:10 29.6 °F /  -1.3 °C 9.3 °F /  -12.6 °C 30.56in /  1034.8hPa Calm     42% 0.00in /  0mm CLR
18:20 29.5 °F /  -1.4 °C 9.2 °F /  -12.7 °C 30.56in /  1034.8hPa Calm   1.0mph /  1.6km/h 42% 0.00in /  0mm CLR
18:30 29.3 °F /  -1.5 °C 10.1 °F /  -12.2 °C 30.56in /  1034.8hPa Calm     44% 0.00in /  0mm CLR
18:40 29.2 °F /  -1.6 °C 10.0 °F /  -12.2 °C 30.56in /  1034.8hPa Calm     44% 0.00in /  0mm CLR
18:49 29.2 °F /  -1.6 °C 9.9 °F /  -12.3 °C 30.56in /  1034.8hPa Calm   1.0mph /  1.6km/h 44% 0.00in /  0mm CLR
19:09 28.6 °F /  -1.9 °C 10.4 °F /  -12 °C 30.56in /  1034.8hPa Calm     46% 0.00in /  0mm CLR
19:20 28.6 °F /  -1.9 °C 9.4 °F /  -12.6 °C 30.56in /  1034.8hPa Calm     44% 0.00in /  0mm CLR
19:29 28.5 °F /  -1.9 °C 9.3 °F /  -12.6 °C 30.57in /  1035.1hPa Calm     44% 0.00in /  0mm CLR
19:39 28.3 °F /  -2.1 °C 9.2 °F /  -12.7 °C 30.57in /  1035.1hPa Calm     44% 0.00in /  0mm CLR
19:49 28.3 °F /  -2.1 °C 9.6 °F /  -12.4 °C 30.56in /  1034.8hPa Calm     45% 0.00in /  0mm CLR
19:59 28.2 °F /  -2.1 °C 10.0 °F /  -12.2 °C 30.56in /  1034.8hPa Calm   1.0mph /  1.6km/h 46% 0.00in /  0mm CLR
20:10 28.1 °F /  -2.2 °C 11.4 °F /  -11.4 °C 30.57in /  1035.1hPa Calm     49% 0.00in /  0mm CLR
20:20 28.1 °F /  -2.2 °C 11.4 °F /  -11.4 °C 30.57in /  1035.1hPa Calm   1.0mph /  1.6km/h 49% 0.00in /  0mm CLR
20:30 28.1 °F /  -2.2 °C 11.4 °F /  -11.4 °C 30.56in /  1034.8hPa Calm   1.0mph /  1.6km/h 49% 0.00in /  0mm CLR
20:40 28.1 °F /  -2.2 °C 11.8 °F /  -11.2 °C 30.56in /  1034.8hPa Calm     50% 0.00in /  0mm CLR
20:49 28.2 °F /  -2.1 °C 11.5 °F /  -11.4 °C 30.55in /  1034.4hPa Calm     49% 0.00in /  0mm CLR
20:59 28.2 °F /  -2.1 °C 11.9 °F /  -11.2 °C 30.55in /  1034.4hPa Calm     50% 0.00in /  0mm CLR
21:09 28.4 °F /  -2 °C 13.0 °F /  -10.6 °C 30.55in /  1034.4hPa Calm     52% 0.00in /  0mm CLR
21:19 28.3 °F /  -2.1 °C 12.0 °F /  -11.1 °C 30.55in /  1034.4hPa Calm     50% 0.00in /  0mm CLR
21:29 28.4 °F /  -2 °C 12.1 °F /  -11.1 °C 30.55in /  1034.4hPa Calm     50% 0.00in /  0mm CLR
21:40 28.4 °F /  -2 °C 13.4 °F /  -10.3 °C 30.55in /  1034.4hPa Calm     53% 0.00in /  0mm CLR
21:49 28.1 °F /  -2.2 °C 12.7 °F /  -10.7 °C 30.55in /  1034.4hPa Calm     52% 0.00in /  0mm CLR
21:59 27.9 °F /  -2.3 °C 13.4 °F /  -10.3 °C 30.54in /  1034.1hPa Calm     54% 0.00in /  0mm CLR
22:10 27.8 °F /  -2.3 °C 12.9 °F /  -10.6 °C 30.54in /  1034.1hPa Calm     53% 0.00in /  0mm CLR
22:19 27.8 °F /  -2.3 °C 13.3 °F /  -10.4 °C 30.54in /  1034.1hPa Calm   1.0mph /  1.6km/h 54% 0.00in /  0mm CLR
22:39 27.9 °F /  -2.3 °C 13.4 °F /  -10.3 °C 30.53in /  1033.7hPa Calm     54% 0.00in /  0mm CLR
22:49 28.0 °F /  -2.2 °C 14.3 °F /  -9.8 °C 30.53in /  1033.7hPa Calm   1.0mph /  1.6km/h 56% 0.00in /  0mm CLR
22:59 28.1 °F /  -2.2 °C 14.4 °F /  -9.8 °C 30.53in /  1033.7hPa Calm   1.0mph /  1.6km/h 56% 0.00in /  0mm CLR
23:20 26.9 °F /  -2.8 °C 15.2 °F /  -9.3 °C 30.55in /  1034.4hPa Calm     61% 0.00in /  0mm CLR
23:29 26.3 °F /  -3.2 °C 15.4 °F /  -9.2 °C 30.55in /  1034.4hPa Calm     63% 0.00in /  0mm CLR
23:39 25.9 °F /  -3.4 °C 15.4 °F /  -9.2 °C 30.54in /  1034.1hPa Calm     64% 0.00in /  0mm CLR
23:49 26.3 °F /  -3.2 °C 15.0 °F /  -9.4 °C 30.54in /  1034.1hPa Calm     62% 0.00in /  0mm CLR
23:59 26.3 °F /  -3.2 °C 14.3 °F /  -9.8 °C 30.54in /  1034.1hPa Calm     60% 0.00in /  0mm CLR
TarryTown NY Weather
Compliments of Weather Underground - 1.75 mb